Time;durP1;ratioP1;P1;durP2;ratioP2;P2;SDS_P1;SDS_P2;PMS_P1;PMS_P2;Temp;Humidity;BMP_temperature;BMP_pressure;BME280_temperature;BME280_humidity;BME280_pressure;Samples;Min_cycle;Max_cycle;Signal;HPM_P1;HPM_P2
2023/04/27 00:01:32;;;;;;;11.10;2.80;;;8.50;99.90;;;;;;5069088;28;20179;-70
2023/04/27 00:03:58;;;;;;;5.53;2.97;;;8.50;99.90;;;;;;5068982;28;20356;-71
2023/04/27 00:06:25;;;;;;;5.40;2.70;;;8.50;99.90;;;;;;5069403;28;20187;-71
2023/04/27 00:08:50;;;;;;;4.50;2.33;;;8.40;99.90;;;;;;5069618;28;20558;-70
2023/04/27 00:11:16;;;;;;;6.33;3.50;;;8.30;99.90;;;;;;5069307;28;20410;-71
2023/04/27 00:13:42;;;;;;;6.00;3.20;;;8.40;99.90;;;;;;5069223;28;20657;-70
2023/04/27 00:16:07;;;;;;;6.70;2.80;;;8.40;99.90;;;;;;5069252;28;20192;-70
2023/04/27 00:18:33;;;;;;;4.67;2.80;;;8.50;99.90;;;;;;5069295;28;20213;-70
2023/04/27 00:20:58;;;;;;;6.03;2.90;;;8.50;99.90;;;;;;5068425;28;20205;-70
2023/04/27 00:23:25;;;;;;;3.53;2.60;;;8.60;99.90;;;;;;5068934;28;20175;-70
2023/04/27 00:25:50;;;;;;;4.00;3.27;;;8.60;99.90;;;;;;5068722;28;20308;-70
2023/04/27 00:28:16;;;;;;;9.57;2.90;;;8.40;99.90;;;;;;5068575;28;20897;-70
2023/04/27 00:30:41;;;;;;;7.37;3.70;;;8.30;99.90;;;;;;5068598;28;20187;-70
2023/04/27 00:33:07;;;;;;;5.40;3.40;;;8.30;99.90;;;;;;5068430;28;20234;-70
2023/04/27 00:35:33;;;;;;;6.83;3.70;;;8.20;99.90;;;;;;5068364;28;20203;-70
2023/04/27 00:37:58;;;;;;;6.10;3.20;;;8.20;99.90;;;;;;5068430;28;20218;-70
2023/04/27 00:40:24;;;;;;;6.60;3.57;;;8.10;99.90;;;;;;5068286;28;20264;-70
2023/04/27 00:42:49;;;;;;;8.73;3.93;;;8.10;99.90;;;;;;5068370;28;20186;-70
2023/04/27 00:45:15;;;;;;;4.93;2.83;;;8.20;99.90;;;;;;5068258;28;20191;-70
2023/04/27 00:47:42;;;;;;;8.83;3.33;;;8.10;99.90;;;;;;5068356;28;20182;-70
2023/04/27 00:50:09;;;;;;;5.63;3.50;;;8.10;99.90;;;;;;5068499;28;20555;-70
2023/04/27 00:52:37;;;;;;;10.47;3.57;;;8.10;99.90;;;;;;5068325;28;20425;-70
2023/04/27 00:55:04;;;;;;;3.50;3.20;;;8.10;99.90;;;;;;5068157;28;20462;-70
2023/04/27 00:57:30;;;;;;;4.90;3.43;;;8.00;99.90;;;;;;5068078;28;20522;-70
2023/04/27 00:59:58;;;;;;;4.73;3.37;;;7.90;99.90;;;;;;5068312;28;20413;-70
2023/04/27 01:02:25;;;;;;;6.77;3.60;;;7.90;99.90;;;;;;5068223;28;20432;-70
2023/04/27 01:04:52;;;;;;;3.20;2.93;;;7.90;99.90;;;;;;5067084;28;20439;-71
2023/04/27 01:07:17;;;;;;;5.90;2.87;;;7.90;99.90;;;;;;5068221;28;20414;-70
2023/04/27 01:09:43;;;;;;;4.20;2.80;;;7.90;99.90;;;;;;5068146;28;20461;-71
2023/04/27 01:12:09;;;;;;;3.23;2.60;;;7.80;99.90;;;;;;5068192;28;20179;-71
2023/04/27 01:14:35;;;;;;;4.53;2.60;;;7.80;99.90;;;;;;5068172;28;20583;-70
2023/04/27 01:17:01;;;;;;;5.23;3.00;;;7.70;99.90;;;;;;5068081;28;20465;-70
2023/04/27 01:19:27;;;;;;;7.40;2.90;;;7.70;99.90;;;;;;5068348;28;20500;-70
2023/04/27 01:21:53;;;;;;;4.70;2.60;;;7.60;99.90;;;;;;5068185;28;20586;-70
2023/04/27 01:24:19;;;;;;;4.33;3.00;;;7.70;99.90;;;;;;5068078;28;20461;-71
2023/04/27 01:26:44;;;;;;;3.40;2.30;;;7.70;99.90;;;;;;5068123;28;20183;-71
2023/04/27 01:29:10;;;;;;;5.30;2.73;;;7.70;99.90;;;;;;5066926;28;20183;-71
2023/04/27 01:31:36;;;;;;;8.20;3.63;;;7.70;99.90;;;;;;5068000;28;20179;-71
2023/04/27 01:34:02;;;;;;;8.50;4.33;;;7.70;99.90;;;;;;5071676;28;20211;-70
2023/04/27 01:36:27;;;;;;;5.17;4.63;;;7.50;99.90;;;;;;5071892;28;20233;-70
2023/04/27 01:38:53;;;;;;;14.80;6.03;;;7.50;99.90;;;;;;5071971;28;20460;-71
2023/04/27 01:41:18;;;;;;;8.53;4.17;;;7.40;99.90;;;;;;5071644;28;20334;-70
2023/04/27 01:43:44;;;;;;;11.67;4.83;;;7.50;99.90;;;;;;5072245;28;20196;-70
2023/04/27 01:46:11;;;;;;;7.83;4.67;;;7.40;99.90;;;;;;5072319;28;20668;-69
2023/04/27 01:48:38;;;;;;;6.27;4.07;;;7.40;99.90;;;;;;5072316;28;20184;-69
2023/04/27 01:51:03;;;;;;;13.67;4.17;;;7.30;99.90;;;;;;5072319;28;20427;-69
2023/04/27 01:53:29;;;;;;;6.90;4.17;;;7.30;99.90;;;;;;5072454;28;20520;-70
2023/04/27 01:55:56;;;;;;;7.30;3.50;;;7.30;99.90;;;;;;5072141;28;20241;-70
2023/04/27 01:58:21;;;;;;;8.50;4.27;;;7.20;99.90;;;;;;5071947;28;20466;-71
2023/04/27 02:00:47;;;;;;;6.23;4.40;;;7.20;99.90;;;;;;5072088;28;20524;-71
2023/04/27 02:03:12;;;;;;;5.60;4.40;;;7.20;99.90;;;;;;5071398;28;20187;-71
2023/04/27 02:05:38;;;;;;;8.27;3.93;;;7.20;99.90;;;;;;5071259;28;20563;-71
2023/04/27 02:08:04;;;;;;;4.90;4.20;;;7.10;99.90;;;;;;5071197;28;20187;-71
2023/04/27 02:10:30;;;;;;;9.57;3.90;;;7.10;99.90;;;;;;5071305;28;20201;-71
2023/04/27 02:12:56;;;;;;;4.67;3.50;;;7.00;99.90;;;;;;5071290;28;20464;-71
2023/04/27 02:15:22;;;;;;;5.53;3.43;;;7.00;99.90;;;;;;5071066;28;20293;-71
2023/04/27 02:17:48;;;;;;;6.53;3.50;;;7.00;99.90;;;;;;5071054;28;20551;-71
2023/04/27 02:20:13;;;;;;;6.27;3.33;;;7.00;99.90;;;;;;5071166;28;20439;-71
2023/04/27 02:22:43;;;;;;;3.30;2.67;;;6.90;99.90;;;;;;5071093;28;20421;-70
2023/04/27 02:25:10;;;;;;;11.63;3.80;;;6.90;99.90;;;;;;5071071;28;20207;-70
2023/04/27 02:27:42;;;;;;;4.17;3.47;;;6.90;99.90;;;;;;5070776;28;20428;-71
2023/04/27 02:30:09;;;;;;;7.63;3.10;;;6.80;99.90;;;;;;5070801;28;20451;-70
2023/04/27 02:32:35;;;;;;;6.17;3.37;;;6.80;99.90;;;;;;5086355;28;20414;-70
2023/04/27 02:35:01;;;;;;;4.73;2.97;;;6.80;99.90;;;;;;5070592;28;20452;-70
2023/04/27 02:37:27;;;;;;;5.53;3.30;;;6.70;99.90;;;;;;5070729;28;20581;-70
2023/04/27 02:39:52;;;;;;;3.53;2.90;;;6.60;99.90;;;;;;5070391;28;20430;-71
2023/04/27 02:42:18;;;;;;;6.13;3.47;;;6.50;99.90;;;;;;5070549;28;20421;-70
2023/04/27 02:44:44;;;;;;;5.60;3.67;;;6.60;99.90;;;;;;5069828;28;20682;-71
2023/04/27 02:47:10;;;;;;;5.30;2.80;;;6.60;99.90;;;;;;5070439;28;20232;-70
2023/04/27 02:49:36;;;;;;;10.30;3.40;;;6.60;99.90;;;;;;5070171;28;20275;-71
2023/04/27 02:52:02;;;;;;;18.20;8.63;;;6.50;99.90;;;;;;5072528;28;20562;-71
2023/04/27 02:54:27;;;;;;;31.00;14.03;;;6.40;99.90;;;;;;5071051;28;20942;-71
2023/04/27 02:56:53;;;;;;;13.53;5.97;;;6.50;99.90;;;;;;5070892;28;20520;-71
2023/04/27 02:59:19;;;;;;;9.53;5.40;;;6.60;99.90;;;;;;5070747;28;20181;-71
2023/04/27 03:01:45;;;;;;;5.93;4.00;;;6.60;99.90;;;;;;5070828;28;20184;-71
2023/04/27 03:04:12;;;;;;;5.93;3.77;;;6.60;99.90;;;;;;5070340;28;20438;-71
2023/04/27 03:06:40;;;;;;;5.63;3.90;;;6.60;99.90;;;;;;5070004;28;20417;-71
2023/04/27 03:09:05;;;;;;;4.23;2.93;;;6.60;99.90;;;;;;5070022;28;20789;-71
2023/04/27 03:11:31;;;;;;;5.80;3.53;;;6.70;99.90;;;;;;5070002;28;20413;-71
2023/04/27 03:13:57;;;;;;;3.90;3.50;;;6.60;99.90;;;;;;5070245;28;20449;-71
2023/04/27 03:16:23;;;;;;;8.83;3.50;;;6.60;99.90;;;;;;5069698;28;20471;-71
2023/04/27 03:18:48;;;;;;;9.93;4.10;;;6.60;99.90;;;;;;5069842;28;20218;-71
2023/04/27 03:21:15;;;;;;;3.77;3.40;;;6.70;99.90;;;;;;5069666;28;20570;-71
2023/04/27 03:23:41;;;;;;;8.63;3.43;;;6.70;99.90;;;;;;5069485;28;20262;-71
2023/04/27 03:26:12;;;;;;;8.00;4.10;;;6.70;99.90;;;;;;5069611;28;20525;-71
2023/04/27 03:28:38;;;;;;;6.40;3.10;;;6.70;99.90;;;;;;5069474;28;20413;-70
2023/04/27 03:31:10;;;;;;;6.17;3.23;;;6.70;99.90;;;;;;5069610;28;20510;-71
2023/04/27 03:33:36;;;;;;;6.90;3.33;;;6.70;99.90;;;;;;5069552;28;20431;-70
2023/04/27 03:36:03;;;;;;;6.50;3.77;;;6.70;99.90;;;;;;5069349;28;20860;-71
2023/04/27 03:38:30;;;;;;;3.93;3.13;;;6.70;99.90;;;;;;5069204;28;20523;-71
2023/04/27 03:40:56;;;;;;;11.13;4.00;;;6.70;99.90;;;;;;5069174;28;20582;-71
2023/04/27 03:43:22;;;;;;;7.10;3.63;;;6.80;99.90;;;;;;5069026;28;20475;-70
2023/04/27 03:45:48;;;;;;;7.20;3.50;;;6.80;99.90;;;;;;5068947;28;20434;-70
2023/04/27 03:48:15;;;;;;;4.60;3.33;;;6.80;99.90;;;;;;5069524;28;20424;-71
2023/04/27 03:50:41;;;;;;;8.00;3.73;;;6.80;99.90;;;;;;5069190;28;20190;-71
2023/04/27 03:53:07;;;;;;;3.33;2.83;;;6.90;99.90;;;;;;5069082;28;20454;-71
2023/04/27 03:55:33;;;;;;;6.03;3.10;;;6.90;99.90;;;;;;5068309;28;20985;-71
2023/04/27 03:57:58;;;;;;;9.57;3.83;;;7.00;99.90;;;;;;5068835;28;20679;-71
2023/04/27 04:00:24;;;;;;;13.13;4.20;;;7.00;99.90;;;;;;5069142;28;20174;-71
2023/04/27 04:02:50;;;;;;;6.13;3.90;;;7.00;99.90;;;;;;5068965;28;20190;-71
2023/04/27 04:05:17;;;;;;;5.57;3.93;;;7.00;99.90;;;;;;5068862;28;20587;-71
2023/04/27 04:07:43;;;;;;;7.10;4.77;;;7.00;99.90;;;;;;5067410;28;20449;-71
2023/04/27 04:10:09;;;;;;;5.70;3.50;;;6.90;99.90;;;;;;5068791;28;20963;-71
2023/04/27 04:12:35;;;;;;;6.17;4.37;;;6.80;99.90;;;;;;5068812;28;20179;-71
2023/04/27 04:15:02;;;;;;;5.90;4.00;;;6.70;99.90;;;;;;5069000;28;20807;-71
2023/04/27 04:17:27;;;;;;;8.37;3.80;;;6.60;99.90;;;;;;5068878;28;20466;-71
2023/04/27 04:19:53;;;;;;;7.27;3.60;;;6.70;99.90;;;;;;5068849;28;20444;-71
2023/04/27 04:22:19;;;;;;;7.73;4.00;;;6.80;99.90;;;;;;5069098;28;20232;-71
2023/04/27 04:24:44;;;;;;;5.83;3.20;;;6.90;99.90;;;;;;5068737;28;20190;-71
2023/04/27 04:27:10;;;;;;;7.17;3.50;;;7.00;99.90;;;;;;5068808;28;20223;-71
2023/04/27 04:29:36;;;;;;;5.73;3.27;;;7.00;99.90;;;;;;5069631;28;20214;-72
2023/04/27 04:32:02;;;;;;;10.27;3.50;;;7.10;99.90;;;;;;5069505;28;20186;-71
2023/04/27 04:34:28;;;;;;;7.33;3.90;;;7.00;99.90;;;;;;5069532;28;20449;-71
2023/04/27 04:36:56;;;;;;;6.80;3.07;;;6.90;99.90;;;;;;5069291;28;20197;-70
2023/04/27 04:39:22;;;;;;;9.20;3.10;;;6.90;99.90;;;;;;5069043;28;20449;-70
2023/04/27 04:41:48;;;;;;;5.17;2.80;;;7.00;99.90;;;;;;5069104;28;20448;-70
2023/04/27 04:44:15;;;;;;;5.47;3.97;;;7.10;99.90;;;;;;5068979;28;21110;-70
2023/04/27 04:46:41;;;;;;;11.03;4.07;;;7.20;99.90;;;;;;5068967;28;20807;-70
2023/04/27 04:49:07;;;;;;;7.00;4.10;;;7.30;99.90;;;;;;5068577;28;20435;-70
2023/04/27 04:51:32;;;;;;;5.47;3.33;;;7.30;99.90;;;;;;5067592;28;20421;-71
2023/04/27 04:53:58;;;;;;;11.43;4.00;;;7.40;99.90;;;;;;5067119;28;20425;-72
2023/04/27 04:56:24;;;;;;;8.00;4.13;;;7.40;99.90;;;;;;5066940;28;20185;-72
2023/04/27 04:58:50;;;;;;;28.07;24.10;;;7.40;99.90;;;;;;5066618;28;20617;-71
2023/04/27 05:01:16;;;;;;;8.67;7.77;;;7.30;99.90;;;;;;5066727;28;20417;-71
2023/04/27 05:03:41;;;;;;;6.80;4.93;;;7.30;99.90;;;;;;5066632;28;20186;-71
2023/04/27 05:06:07;;;;;;;4.23;3.87;;;7.30;99.90;;;;;;5066584;28;20183;-71
2023/04/27 05:08:32;;;;;;;4.97;3.37;;;7.30;99.90;;;;;;5069465;28;20676;-72
2023/04/27 05:10:58;;;;;;;4.87;3.47;;;7.40;99.90;;;;;;5070805;28;20192;-71
2023/04/27 05:13:24;;;;;;;4.33;3.93;;;7.60;99.90;;;;;;5070743;28;20259;-72
2023/04/27 05:15:50;;;;;;;6.70;4.17;;;7.70;99.90;;;;;;5070385;28;20755;-72
2023/04/27 05:18:16;;;;;;;2.90;2.60;;;7.90;99.90;;;;;;5068910;28;20210;-72
2023/04/27 05:20:42;;;;;;;4.57;3.00;;;7.90;99.90;;;;;;5070679;28;20521;-72
2023/04/27 05:23:08;;;;;;;5.67;3.10;;;7.90;99.90;;;;;;5070357;28;20991;-72
2023/04/27 05:25:40;;;;;;;2.83;2.53;;;8.00;99.90;;;;;;5070479;28;20203;-72
2023/04/27 05:28:09;;;;;;;10.43;2.77;;;8.10;99.90;;;;;;5086194;28;20225;-72
2023/04/27 05:30:35;;;;;;;5.97;2.87;;;8.10;99.90;;;;;;5070885;28;20612;-71
2023/04/27 05:33:02;;;;;;;2.37;2.17;;;8.10;99.90;;;;;;5070859;28;21184;-71
2023/04/27 05:35:28;;;;;;;2.87;2.67;;;8.10;99.90;;;;;;5070827;28;20839;-71
2023/04/27 05:37:53;;;;;;;6.53;3.40;;;8.30;99.90;;;;;;5070908;28;20462;-72
2023/04/27 05:40:19;;;;;;;7.93;3.13;;;8.50;99.90;;;;;;5070505;28;20515;-72
2023/04/27 05:42:48;;;;;;;5.63;3.10;;;8.60;99.90;;;;;;5070364;28;20565;-72
2023/04/27 05:45:14;;;;;;;2.83;2.63;;;8.70;99.90;;;;;;5070232;28;20194;-71
2023/04/27 05:47:40;;;;;;;5.37;3.00;;;8.80;99.90;;;;;;5070159;28;20428;-71
2023/04/27 05:50:06;;;;;;;6.57;5.00;;;8.90;99.90;;;;;;5069975;28;20938;-71
2023/04/27 05:52:32;;;;;;;8.33;5.53;;;8.90;99.90;;;;;;5069929;28;20176;-72
2023/04/27 05:54:58;;;;;;;7.47;6.50;;;9.00;99.90;;;;;;5069883;28;20445;-72
2023/04/27 05:57:24;;;;;;;6.03;5.43;;;9.00;99.90;;;;;;5069884;28;20207;-72
2023/04/27 05:59:50;;;;;;;9.10;5.90;;;9.10;99.90;;;;;;5070004;28;20433;-71
2023/04/27 06:02:16;;;;;;;13.00;5.20;;;9.20;99.90;;;;;;5069962;28;20448;-71
2023/04/27 06:04:42;;;;;;;5.23;4.63;;;9.30;99.90;;;;;;5069710;28;20751;-72
2023/04/27 06:07:09;;;;;;;9.23;4.47;;;9.50;99.90;;;;;;5069797;28;20428;-72
2023/04/27 06:09:35;;;;;;;9.27;5.60;;;9.60;99.90;;;;;;5069533;28;20223;-71
2023/04/27 06:12:05;;;;;;;5.93;4.77;;;9.70;99.90;;;;;;5069820;28;20845;-72
2023/04/27 06:14:31;;;;;;;8.60;5.27;;;9.90;99.90;;;;;;5084832;28;20689;-72
2023/04/27 06:16:57;;;;;;;7.47;4.47;;;10.00;99.90;;;;;;5069565;28;20966;-71
2023/04/27 06:19:23;;;;;;;10.03;5.83;;;10.00;99.90;;;;;;5068675;28;20499;-71
2023/04/27 06:21:49;;;;;;;8.87;5.23;;;10.10;99.90;;;;;;5069433;28;20193;-71
2023/04/27 06:24:15;;;;;;;10.23;5.33;;;10.20;99.90;;;;;;5069491;28;20269;-71
2023/04/27 06:26:40;;;;;;;10.93;5.70;;;10.30;99.90;;;;;;5069786;28;21110;-71
2023/04/27 06:29:07;;;;;;;10.70;5.80;;;10.30;99.90;;;;;;5069708;28;20552;-71
2023/04/27 06:31:33;;;;;;;9.03;5.17;;;10.30;99.90;;;;;;5069859;28;20560;-70
2023/04/27 06:33:59;;;;;;;11.23;5.10;;;10.40;99.90;;;;;;5069147;28;20505;-70
2023/04/27 06:36:28;;;;;;;11.20;5.53;;;10.40;99.90;;;;;;5068982;28;20453;-71
2023/04/27 06:38:55;;;;;;;13.67;5.43;;;10.50;99.90;;;;;;5068966;28;20987;-71
2023/04/27 06:41:21;;;;;;;9.57;4.73;;;10.50;99.90;;;;;;5068874;28;20884;-71
2023/04/27 06:43:47;;;;;;;9.43;5.10;;;10.70;99.90;;;;;;5069119;28;20430;-72
2023/04/27 06:46:13;;;;;;;10.27;4.63;;;10.80;99.90;;;;;;5069502;28;20422;-72
2023/04/27 06:48:38;;;;;;;8.80;4.60;;;10.90;99.90;;;;;;5069898;28;20568;-69
2023/04/27 06:51:04;;;;;;;9.47;4.93;;;11.00;99.90;;;;;;5069656;28;20177;-72
2023/04/27 06:53:30;;;;;;;12.40;4.80;;;11.20;99.90;;;;;;5069473;28;20192;-70
2023/04/27 06:55:56;;;;;;;14.83;4.67;;;11.30;99.90;;;;;;5069381;28;20695;-71
2023/04/27 06:58:21;;;;;;;11.10;4.40;;;11.40;99.90;;;;;;5069475;28;20522;-70
2023/04/27 07:00:47;;;;;;;5.33;3.80;;;11.50;99.90;;;;;;5067598;28;20183;-71
2023/04/27 07:03:13;;;;;;;5.93;3.97;;;11.50;99.90;;;;;;5069179;28;20212;-72
2023/04/27 07:05:39;;;;;;;8.20;5.10;;;11.60;99.90;;;;;;5067288;28;21068;-71
2023/04/27 07:08:05;;;;;;;8.33;4.80;;;11.70;99.90;;;;;;5068883;28;20427;-71
2023/04/27 07:10:31;;;;;;;4.83;3.90;;;11.80;99.90;;;;;;5068336;28;20468;-71
2023/04/27 07:12:57;;;;;;;14.03;5.13;;;12.00;99.90;;;;;;5068417;28;20875;-71
2023/04/27 07:15:23;;;;;;;11.80;4.63;;;12.10;99.80;;;;;;5067012;28;20292;-71
2023/04/27 07:17:51;;;;;;;9.67;4.43;;;12.40;98.70;;;;;;5068410;28;20501;-71
2023/04/27 07:20:17;;;;;;;8.17;4.30;;;12.50;98.90;;;;;;5068275;28;20646;-71
2023/04/27 07:22:43;;;;;;;15.47;4.60;;;12.70;97.50;;;;;;5068147;28;20422;-71
2023/04/27 07:25:09;;;;;;;11.20;4.50;;;12.70;97.30;;;;;;5068129;28;20458;-71
2023/04/27 07:27:35;;;;;;;12.57;4.47;;;12.80;96.40;;;;;;5068353;28;20913;-71
2023/04/27 07:30:01;;;;;;;8.50;4.70;;;12.90;97.30;;;;;;5067872;28;20197;-71
2023/04/27 07:32:26;;;;;;;9.00;4.20;;;13.10;95.00;;;;;;5067951;28;20217;-71
2023/04/27 07:34:54;;;;;;;9.30;4.07;;;13.30;93.70;;;;;;5067645;28;20452;-71
2023/04/27 07:37:21;;;;;;;8.20;5.43;;;13.30;94.30;;;;;;5067652;28;20228;-71
2023/04/27 07:39:49;;;;;;;7.50;4.30;;;13.60;92.00;;;;;;5082839;28;20452;-71
2023/04/27 07:42:14;;;;;;;10.90;4.13;;;13.70;88.40;;;;;;5067682;28;20412;-71
2023/04/27 07:44:41;;;;;;;9.30;3.73;;;13.70;91.70;;;;;;5067546;28;20429;-71
2023/04/27 07:47:07;;;;;;;10.30;4.60;;;13.70;90.20;;;;;;5067556;28;20215;-71
2023/04/27 07:49:33;;;;;;;8.67;3.60;;;13.90;91.20;;;;;;5067579;28;20449;-71
2023/04/27 07:51:59;;;;;;;11.67;3.67;;;14.30;88.10;;;;;;5067274;28;20183;-71
2023/04/27 07:54:25;;;;;;;7.63;3.07;;;14.40;82.90;;;;;;5067337;28;20831;-71
2023/04/27 07:56:51;;;;;;;10.13;4.27;;;14.40;85.60;;;;;;5067479;28;20187;-71
2023/04/27 07:59:16;;;;;;;4.20;3.27;;;14.70;82.10;;;;;;5067661;28;20933;-72
2023/04/27 08:01:42;;;;;;;4.23;3.10;;;14.60;81.10;;;;;;5067393;28;20281;-71
2023/04/27 08:04:08;;;;;;;6.60;3.43;;;14.80;82.70;;;;;;5067215;28;20233;-71
2023/04/27 08:06:33;;;;;;;8.97;4.03;;;15.00;84.10;;;;;;5067201;28;20237;-71
2023/04/27 08:09:00;;;;;;;7.07;3.60;;;14.90;80.10;;;;;;5067090;28;20685;-71
2023/04/27 08:11:26;;;;;;;9.63;3.80;;;15.00;80.30;;;;;;5067254;28;20417;-71
2023/04/27 08:13:52;;;;;;;7.97;3.93;;;15.10;81.70;;;;;;5067237;28;20802;-71
2023/04/27 08:16:17;;;;;;;9.30;4.40;;;15.30;82.10;;;;;;5067291;28;20553;-71
2023/04/27 08:18:43;;;;;;;8.20;3.57;;;15.40;83.60;;;;;;5068928;28;20215;-72
2023/04/27 08:21:09;;;;;;;5.43;3.63;;;15.50;84.30;;;;;;5069312;28;20625;-71
2023/04/27 08:23:36;;;;;;;7.70;3.10;;;15.40;82.10;;;;;;5068386;28;20914;-71
2023/04/27 08:26:02;;;;;;;9.33;3.70;;;15.50;84.80;;;;;;5068538;28;20195;-71
2023/04/27 08:28:28;;;;;;;3.83;3.23;;;15.60;84.80;;;;;;5068560;28;20449;-71
2023/04/27 08:30:53;;;;;;;6.90;3.70;;;15.70;80.70;;;;;;5068820;28;20236;-72
2023/04/27 08:33:20;;;;;;;10.73;3.43;;;16.10;82.30;;;;;;5069142;28;20667;-71
2023/04/27 08:35:45;;;;;;;4.87;2.87;;;16.20;81.60;;;;;;5068905;28;20207;-71
2023/04/27 08:38:11;;;;;;;5.60;3.37;;;16.30;81.40;;;;;;5068980;28;21011;-71
2023/04/27 08:40:42;;;;;;;3.93;2.87;;;16.20;78.00;;;;;;5069350;28;20192;-72
2023/04/27 08:43:08;;;;;;;5.00;2.83;;;16.30;77.60;;;;;;5068260;28;20678;-71
2023/04/27 08:45:33;;;;;;;7.50;2.43;;;16.50;79.20;;;;;;5068150;28;20436;-71
2023/04/27 08:48:00;;;;;;;8.77;3.43;;;16.80;77.40;;;;;;5067123;28;20224;-71
2023/04/27 08:50:26;;;;;;;4.70;2.97;;;16.90;78.60;;;;;;5065775;28;20196;-71
2023/04/27 08:52:52;;;;;;;4.97;2.70;;;16.80;78.60;;;;;;5066942;28;20430;-71
2023/04/27 08:55:18;;;;;;;3.47;2.60;;;17.00;74.30;;;;;;5066511;28;21036;-71
2023/04/27 08:58:00;;;;;;;11.43;3.23;;;17.20;74.30;;;;;;5066935;28;20542;-71
2023/04/27 09:00:26;;;;;;;8.10;3.30;;;17.60;76.60;;;;;;5066854;28;20413;-71
2023/04/27 09:02:52;;;;;;;3.00;2.80;;;18.20;71.90;;;;;;5066792;28;20427;-72
2023/04/27 09:05:21;;;;;;;7.13;2.90;;;18.50;74.70;;;;;;5066526;28;20440;-71
2023/04/27 09:07:56;;;;;;;8.30;3.40;;;18.60;70.40;;;;;;5066576;28;20415;-72
2023/04/27 09:10:22;;;;;;;7.50;3.40;;;18.20;69.40;;;;;;5066605;28;20926;-71
2023/04/27 09:12:58;;;;;;;4.27;2.90;;;18.00;69.70;;;;;;5066731;28;20436;-71
2023/04/27 09:15:24;;;;;;;5.10;2.70;;;18.00;69.00;;;;;;5066924;28;20434;-71
2023/04/27 09:17:56;;;;;;;5.67;2.93;;;18.00;69.60;;;;;;5066906;28;20471;-71
2023/04/27 09:20:25;;;;;;;5.93;3.33;;;18.30;69.60;;;;;;5066377;28;20470;-71
2023/04/27 09:22:54;;;;;;;8.27;3.20;;;18.60;70.20;;;;;;5066444;28;20927;-72
2023/04/27 09:25:31;;;;;;;6.23;3.07;;;18.80;68.50;;;;;;5066392;28;20444;-71
2023/04/27 09:27:58;;;;;;;6.97;2.53;;;19.20;69.40;;;;;;5066180;28;20428;-71
2023/04/27 09:30:25;;;;;;;9.80;2.93;;;19.50;69.40;;;;;;5066385;28;20988;-71
2023/04/27 09:32:52;;;;;;;9.70;3.73;;;19.70;66.40;;;;;;5064854;28;20453;-71
2023/04/27 09:35:23;;;;;;;12.83;3.53;;;19.70;65.90;;;;;;5066259;28;20442;-70
2023/04/27 09:37:53;;;;;;;5.47;3.53;;;19.40;61.20;;;;;;5081278;28;20479;-70
2023/04/27 09:40:19;;;;;;;7.50;3.40;;;19.30;64.70;;;;;;5066294;28;20517;-71
2023/04/27 09:42:46;;;;;;;3.93;3.00;;;19.50;66.80;;;;;;5066143;28;20427;-70
2023/04/27 09:45:12;;;;;;;5.77;3.07;;;19.90;65.50;;;;;;5066197;28;20862;-71
2023/04/27 09:47:39;;;;;;;7.70;2.70;;;20.60;61.30;;;;;;5066280;28;20467;-70
2023/04/27 09:50:05;;;;;;;3.50;2.50;;;20.90;63.50;;;;;;5066220;28;20443;-71
2023/04/27 09:52:32;;;;;;;8.43;2.87;;;21.20;60.80;;;;;;5066215;28;20953;-71
2023/04/27 09:54:59;;;;;;;5.37;3.00;;;21.30;57.70;;;;;;5067953;28;20468;-72
2023/04/27 09:57:25;;;;;;;4.67;3.17;;;21.30;57.10;;;;;;5069658;28;20496;-71
2023/04/27 10:00:09;;;;;;;6.67;3.00;;;21.30;58.30;;;;;;5069865;28;20510;-71
2023/04/27 10:03:06;;;;;;;4.83;2.60;;;21.60;55.80;;;;;;5070212;28;20180;-70
2023/04/27 10:05:49;;;;;;;6.80;2.60;;;22.20;56.80;;;;;;5070411;28;20438;-71
2023/04/27 10:08:15;;;;;;;3.47;2.80;;;22.20;53.00;;;;;;5070365;28;20924;-70
2023/04/27 10:10:45;;;;;;;2.73;2.27;;;21.80;53.80;;;;;;5069726;28;20428;-72
2023/04/27 10:13:23;;;;;;;3.67;2.63;;;20.90;54.00;;;;;;5069575;28;20472;-72
2023/04/27 10:15:50;;;;;;;7.37;2.90;;;20.50;53.90;;;;;;5067885;28;20505;-72
2023/04/27 10:18:26;;;;;;;7.80;3.20;;;20.10;52.50;;;;;;5069316;28;20464;-71
2023/04/27 10:20:52;;;;;;;6.37;3.43;;;20.10;53.60;;;;;;5069764;28;20418;-71
2023/04/27 10:23:25;;;;;;;4.37;2.40;;;20.50;54.50;;;;;;5069414;28;20420;-72
2023/04/27 10:25:52;;;;;;;3.73;2.30;;;20.90;53.50;;;;;;5069482;28;20440;-72
2023/04/27 10:28:17;;;;;;;7.57;2.80;;;21.30;51.60;;;;;;5069486;28;20428;-71
2023/04/27 10:30:46;;;;;;;6.00;2.27;;;21.40;51.80;;;;;;5069320;28;20478;-71
2023/04/27 10:33:22;;;;;;;5.33;2.90;;;21.20;50.70;;;;;;5069196;28;20192;-72
2023/04/27 10:35:59;;;;;;;5.87;2.80;;;21.70;53.40;;;;;;5069179;28;20432;-71
2023/04/27 10:38:31;;;;;;;6.20;3.10;;;22.50;52.60;;;;;;5069592;28;20555;-71
2023/04/27 10:41:03;;;;;;;4.17;2.87;;;22.60;51.70;;;;;;5070064;28;20739;-71
2023/04/27 10:43:31;;;;;;;4.33;2.60;;;22.60;53.60;;;;;;5069853;28;20416;-71
2023/04/27 10:46:13;;;;;;;6.10;2.40;;;22.20;53.30;;;;;;5069379;28;20453;-71
2023/04/27 10:48:43;;;;;;;3.40;2.67;;;22.20;51.80;;;;;;5069250;28;20424;-72
2023/04/27 10:51:09;;;;;;;11.20;2.70;;;22.40;49.10;;;;;;5069150;28;20846;-71
2023/04/27 10:53:36;;;;;;;7.63;2.77;;;22.80;50.60;;;;;;5068785;28;20429;-71
2023/04/27 10:56:05;;;;;;;3.30;2.40;;;23.40;52.50;;;;;;5067823;28;20434;-71
2023/04/27 10:58:31;;;;;;;9.63;2.67;;;23.40;50.50;;;;;;5068721;28;20476;-71
2023/04/27 11:00:57;;;;;;;4.10;2.57;;;23.60;50.40;;;;;;5068873;28;20426;-71
2023/04/27 11:03:23;;;;;;;4.40;2.00;;;23.50;48.80;;;;;;5068687;28;20463;-71
2023/04/27 11:05:59;;;;;;;4.93;2.77;;;23.40;47.70;;;;;;5068084;28;20244;-71
2023/04/27 11:08:25;;;;;;;5.77;3.03;;;23.50;51.10;;;;;;5068789;28;20516;-71
2023/04/27 11:10:51;;;;;;;4.63;2.97;;;23.20;45.00;;;;;;5068610;28;20859;-71
2023/04/27 11:13:19;;;;;;;6.40;2.83;;;22.70;46.80;;;;;;5068329;28;20192;-71
2023/04/27 11:15:46;;;;;;;5.77;2.60;;;22.60;46.10;;;;;;5068634;28;20990;-71
2023/04/27 11:18:12;;;;;;;5.50;2.60;;;22.60;47.00;;;;;;5068184;28;20518;-71
2023/04/27 11:20:37;;;;;;;4.30;2.60;;;22.30;45.80;;;;;;5068150;28;20430;-71
2023/04/27 11:23:03;;;;;;;4.23;2.27;;;21.80;46.80;;;;;;5068333;28;20191;-71
2023/04/27 11:25:29;;;;;;;5.47;2.40;;;21.60;49.40;;;;;;5068048;28;20215;-71
2023/04/27 11:27:54;;;;;;;4.03;2.30;;;21.80;52.10;;;;;;5068122;28;20216;-71
2023/04/27 11:30:22;;;;;;;5.97;2.60;;;22.00;49.80;;;;;;5068218;28;20266;-71
2023/04/27 11:32:49;;;;;;;7.60;2.23;;;22.00;48.00;;;;;;5068069;28;20194;-71
2023/04/27 11:35:15;;;;;;;6.20;2.20;;;22.40;50.80;;;;;;5067819;28;20449;-71
2023/04/27 11:37:41;;;;;;;4.33;2.07;;;22.40;50.40;;;;;;5067775;28;20556;-71
2023/04/27 11:40:08;;;;;;;3.83;2.50;;;22.70;49.90;;;;;;5067798;28;20466;-71
2023/04/27 11:42:34;;;;;;;3.90;2.27;;;22.90;50.60;;;;;;5067996;28;20575;-71
2023/04/27 11:45:07;;;;;;;2.27;2.10;;;22.90;50.20;;;;;;5068168;28;20445;-71
2023/04/27 11:47:39;;;;;;;3.43;2.33;;;22.70;50.00;;;;;;5067734;28;20420;-70
2023/04/27 11:50:07;;;;;;;4.70;2.13;;;22.50;49.40;;;;;;5068008;28;20455;-71
2023/04/27 11:52:34;;;;;;;3.87;2.10;;;22.90;51.10;;;;;;5068021;28;21011;-71
2023/04/27 11:55:02;;;;;;;4.70;2.30;;;22.70;48.90;;;;;;5068116;28;20507;-70
2023/04/27 11:57:37;;;;;;;3.37;2.07;;;22.30;48.70;;;;;;5068271;28;20555;-71
2023/04/27 12:00:13;;;;;;;3.63;3.00;;;22.20;49.90;;;;;;5068477;28;20413;-70
2023/04/27 12:02:38;;;;;;;4.90;2.20;;;22.60;48.80;;;;;;5068292;28;20413;-71
2023/04/27 12:05:06;;;;;;;3.67;2.20;;;22.70;49.60;;;;;;5067922;28;20514;-71
2023/04/27 12:07:32;;;;;;;3.43;2.10;;;22.90;50.50;;;;;;5067744;28;20199;-71
2023/04/27 12:09:57;;;;;;;5.67;2.90;;;22.60;50.70;;;;;;5067909;28;20431;-71
2023/04/27 12:12:23;;;;;;;2.43;2.13;;;22.10;49.90;;;;;;5067822;28;20422;-71
2023/04/27 12:14:50;;;;;;;4.93;2.47;;;22.40;51.60;;;;;;5067553;28;20646;-71
2023/04/27 12:17:16;;;;;;;6.83;2.80;;;22.90;52.40;;;;;;5067056;28;20191;-72
2023/04/27 12:19:42;;;;;;;6.63;2.50;;;23.10;52.30;;;;;;5067600;28;20410;-70
2023/04/27 12:22:08;;;;;;;2.90;2.10;;;23.30;50.50;;;;;;5067451;28;20839;-71
2023/04/27 12:24:35;;;;;;;6.60;2.30;;;23.40;50.10;;;;;;5067309;28;20199;-71
2023/04/27 12:27:02;;;;;;;4.07;1.90;;;23.70;49.50;;;;;;5082544;28;20534;-71
2023/04/27 12:29:27;;;;;;;6.33;2.27;;;23.60;49.70;;;;;;5067458;28;20426;-71
2023/04/27 12:31:53;;;;;;;3.93;2.00;;;23.70;50.40;;;;;;5067259;28;20426;-71
2023/04/27 12:34:19;;;;;;;2.43;1.70;;;23.30;45.30;;;;;;5067050;28;20239;-71
2023/04/27 12:36:45;;;;;;;4.73;1.97;;;23.30;48.40;;;;;;5066999;28;20198;-71
2023/04/27 12:39:19;;;;;;;2.43;1.50;;;23.00;44.50;;;;;;5066899;28;20536;-71
2023/04/27 12:41:46;;;;;;;3.93;2.03;;;23.10;46.40;;;;;;5067031;28;20433;-72
2023/04/27 12:44:13;;;;;;;4.83;2.47;;;22.70;43.50;;;;;;5066865;28;20446;-71
2023/04/27 12:46:40;;;;;;;3.07;1.30;;;23.10;46.50;;;;;;5067012;28;20767;-72
2023/04/27 12:49:06;;;;;;;3.10;1.30;;;23.20;45.90;;;;;;5066752;28;20488;-71